Teluk Intan, Malaysia
Current Conditions -  °F | °C
As of 2:00 AM on Sunday 21 Dec 2014 (Local Time) from WMBA Reporting Station
Broken Clouds Broken Clouds  
Wind Chill: 75°   Ceiling: 28000
Heat Index: 75°   Visibility: 6mi
Dew Point: 73°   Wind: 1mph
Humidity: 94%   Direction: 300°WNW
Pressure: 29.8"   Gusts: NA
Location:  4.02°N, 101.03°E
Report Text: WMBA 201800Z 30001KT 9999 FEW034 SCT150 BKN280 24/23 Q1009
Loading
Personal Weather Stations






























Interactive Weather Map New forecast layout! Learn more

10-Day Weather Forecast

Advertisements
Track Severe Weather on mobile